createdAt,value
2017-10-27T00:00:16.600Z,994.39
2017-10-27T00:01:16.578Z,994.40
2017-10-27T00:02:16.592Z,994.38
2017-10-27T00:03:16.592Z,994.35
2017-10-27T00:04:16.639Z,994.33
2017-10-27T00:05:16.637Z,994.32
2017-10-27T00:06:16.629Z,994.32
2017-10-27T00:07:16.646Z,994.33
2017-10-27T00:08:16.657Z,994.31
2017-10-27T00:09:16.695Z,994.28
2017-10-27T00:10:16.666Z,994.24
2017-10-27T00:11:16.696Z,994.23
2017-10-27T00:12:16.680Z,994.21
2017-10-27T00:13:16.750Z,994.18
2017-10-27T00:14:16.723Z,994.17
2017-10-27T00:15:16.695Z,994.20
2017-10-27T00:16:16.709Z,994.15
2017-10-27T00:17:16.736Z,994.17
2017-10-27T00:18:16.741Z,994.14
2017-10-27T00:19:16.733Z,994.16
2017-10-27T00:20:16.746Z,994.18
2017-10-27T00:21:16.746Z,994.19
2017-10-27T00:22:16.780Z,994.22
2017-10-27T00:23:16.814Z,994.27
2017-10-27T00:24:16.798Z,994.23
2017-10-27T00:25:16.790Z,994.21
2017-10-27T00:26:16.802Z,994.18
2017-10-27T00:27:16.815Z,994.21
2017-10-27T00:28:16.826Z,994.15
2017-10-27T00:29:16.820Z,994.19
2017-10-27T00:30:16.843Z,994.18
2017-10-27T00:31:16.862Z,994.17
2017-10-27T00:32:16.855Z,994.17
2017-10-27T00:33:16.848Z,994.17
2017-10-27T00:34:16.858Z,994.20
2017-10-27T00:35:16.897Z,994.16
2017-10-27T00:36:16.904Z,994.15
2017-10-27T00:37:16.895Z,994.10
2017-10-27T00:38:16.935Z,994.11
2017-10-27T00:39:16.925Z,994.16
2017-10-27T00:40:16.899Z,994.14
2017-10-27T00:41:16.936Z,994.15
2017-10-27T00:42:16.981Z,994.14
2017-10-27T00:43:16.956Z,994.11
2017-10-27T00:44:16.949Z,994.12
2017-10-27T00:45:16.974Z,994.06
2017-10-27T00:46:16.986Z,994.08
2017-10-27T00:47:17.032Z,994.10
2017-10-27T00:48:16.980Z,994.05
2017-10-27T00:49:17.019Z,994.06
2017-10-27T00:50:17.011Z,994.04
2017-10-27T00:51:17.029Z,993.99
2017-10-27T00:52:17.037Z,993.94
2017-10-27T00:53:17.084Z,993.95
2017-10-27T00:54:17.039Z,993.90
2017-10-27T00:55:17.054Z,993.94
2017-10-27T00:56:17.114Z,993.87
2017-10-27T00:57:17.094Z,993.88
2017-10-27T00:58:17.069Z,993.86
2017-10-27T00:59:17.093Z,993.85
2017-10-27T01:00:17.129Z,993.90
2017-10-27T01:01:17.137Z,993.87
2017-10-27T01:02:17.125Z,993.84
2017-10-27T01:03:17.111Z,993.86
2017-10-27T01:04:17.150Z,993.84
2017-10-27T01:05:17.136Z,993.84
2017-10-27T01:06:17.183Z,993.79
2017-10-27T01:07:17.159Z,993.83
2017-10-27T01:08:17.163Z,993.83
2017-10-27T01:09:17.212Z,993.83
2017-10-27T01:10:17.169Z,993.83
2017-10-27T01:11:17.249Z,993.86
2017-10-27T01:12:17.190Z,993.81
2017-10-27T01:13:17.206Z,993.86
2017-10-27T01:14:17.222Z,993.88
2017-10-27T01:15:17.248Z,993.86
2017-10-27T01:16:17.270Z,993.88
2017-10-27T01:17:17.263Z,993.89
2017-10-27T01:18:17.245Z,993.89
2017-10-27T01:19:17.262Z,993.88
2017-10-27T01:20:17.316Z,993.87
2017-10-27T01:21:17.269Z,993.88
2017-10-27T01:22:17.283Z,993.87
2017-10-27T01:23:17.306Z,993.89
2017-10-27T01:24:17.324Z,993.87
2017-10-27T01:25:17.319Z,993.88
2017-10-27T01:26:17.388Z,993.86
2017-10-27T01:27:17.340Z,993.91
2017-10-27T01:28:17.352Z,993.91
2017-10-27T01:29:17.413Z,993.90
2017-10-27T01:30:17.354Z,993.91
2017-10-27T01:31:17.391Z,993.89
2017-10-27T01:32:17.377Z,993.89
2017-10-27T01:33:17.396Z,993.85
2017-10-27T01:34:17.411Z,993.81
2017-10-27T01:35:17.431Z,993.80
2017-10-27T01:36:17.407Z,993.85
2017-10-27T01:37:17.412Z,993.79
2017-10-27T01:38:17.437Z,993.79
2017-10-27T01:39:17.454Z,993.73
2017-10-27T01:40:17.449Z,993.72
2017-10-27T01:41:17.457Z,993.66
2017-10-27T01:42:17.484Z,993.66
2017-10-27T01:43:17.470Z,993.63
2017-10-27T01:44:17.475Z,993.62
2017-10-27T01:45:17.479Z,993.61
2017-10-27T01:46:17.503Z,993.56
2017-10-27T01:47:17.546Z,993.57
2017-10-27T01:48:17.525Z,993.55
2017-10-27T01:49:17.509Z,993.51
2017-10-27T01:50:17.535Z,993.52
2017-10-27T01:51:17.537Z,993.50
2017-10-27T01:52:17.543Z,993.50
2017-10-27T01:53:17.561Z,993.50
2017-10-27T01:54:17.570Z,993.51
2017-10-27T01:55:17.603Z,993.49
2017-10-27T01:56:17.616Z,993.48
2017-10-27T01:57:17.597Z,993.48
2017-10-27T01:58:17.600Z,993.50
2017-10-27T01:59:17.614Z,993.48
2017-10-27T02:00:17.627Z,993.47
2017-10-27T02:01:17.628Z,993.49
2017-10-27T02:02:17.627Z,993.45
2017-10-27T02:03:17.682Z,993.41
2017-10-27T02:04:17.656Z,993.45
2017-10-27T02:05:17.663Z,993.44
2017-10-27T02:06:17.689Z,993.43
2017-10-27T02:07:17.689Z,993.44
2017-10-27T02:08:17.710Z,993.39
2017-10-27T02:09:17.701Z,993.39
2017-10-27T02:10:17.719Z,993.38
2017-10-27T02:11:17.715Z,993.39
2017-10-27T02:12:17.730Z,993.36
2017-10-27T02:13:17.728Z,993.35
2017-10-27T02:14:17.807Z,993.31
2017-10-27T02:15:17.743Z,993.34
2017-10-27T02:16:17.760Z,993.36
2017-10-27T02:17:17.769Z,993.34
2017-10-27T02:18:17.794Z,993.32
2017-10-27T02:19:17.783Z,993.34
2017-10-27T02:20:17.834Z,993.35
2017-10-27T02:21:17.849Z,993.32
2017-10-27T02:22:17.821Z,993.39
2017-10-27T02:23:17.827Z,993.41
2017-10-27T02:24:17.878Z,993.36
2017-10-27T02:25:17.824Z,993.37
2017-10-27T02:26:17.878Z,993.38
2017-10-27T02:27:17.847Z,993.32
2017-10-27T02:28:17.899Z,993.32
2017-10-27T02:29:17.872Z,993.26
2017-10-27T02:30:17.881Z,993.24
2017-10-27T02:31:17.898Z,993.25
2017-10-27T02:32:17.935Z,993.23
2017-10-27T02:33:17.904Z,993.19
2017-10-27T02:34:17.921Z,993.15
2017-10-27T02:35:17.922Z,993.20
2017-10-27T02:36:17.923Z,993.20
2017-10-27T02:37:17.947Z,993.20
2017-10-27T02:38:17.969Z,993.22
2017-10-27T02:39:17.959Z,993.28
2017-10-27T02:40:17.963Z,993.23
2017-10-27T02:41:17.988Z,993.32
2017-10-27T02:42:18.025Z,993.33
2017-10-27T02:43:18.006Z,993.31
2017-10-27T02:44:18.011Z,993.35
2017-10-27T02:45:18.039Z,993.31
2017-10-27T02:46:18.025Z,993.35
2017-10-27T02:47:18.028Z,993.34
2017-10-27T02:48:18.045Z,993.32
2017-10-27T02:49:18.050Z,993.41
2017-10-27T02:50:18.063Z,993.42
2017-10-27T02:51:18.061Z,993.40
2017-10-27T02:52:18.052Z,993.38
2017-10-27T02:53:18.085Z,993.36
2017-10-27T02:54:18.112Z,993.37
2017-10-27T02:55:18.099Z,993.33
2017-10-27T02:56:18.083Z,993.32
2017-10-27T02:57:18.097Z,993.33
2017-10-27T02:58:18.127Z,993.35
2017-10-27T02:59:18.162Z,993.29
2017-10-27T03:00:18.127Z,993.27
2017-10-27T03:01:18.174Z,993.26
2017-10-27T03:02:18.179Z,993.23
2017-10-27T03:03:18.163Z,993.26
2017-10-27T03:04:18.156Z,993.26
2017-10-27T03:05:18.206Z,993.27
2017-10-27T03:06:18.198Z,993.26
2017-10-27T03:07:18.188Z,993.28
2017-10-27T03:08:18.198Z,993.30
2017-10-27T03:09:18.218Z,993.31
2017-10-27T03:10:18.222Z,993.33
2017-10-27T03:11:18.216Z,993.31
2017-10-27T03:12:18.229Z,993.29
2017-10-27T03:13:18.244Z,993.32
2017-10-27T03:14:18.260Z,993.32
2017-10-27T03:15:18.282Z,993.30
2017-10-27T03:16:18.273Z,993.39
2017-10-27T03:17:18.277Z,993.39
2017-10-27T03:18:18.290Z,993.44
2017-10-27T03:19:18.279Z,993.47
2017-10-27T03:20:18.335Z,993.51
2017-10-27T03:21:18.315Z,993.57
2017-10-27T03:22:18.320Z,993.51
2017-10-27T03:23:18.333Z,993.62
2017-10-27T03:24:18.346Z,993.60
2017-10-27T03:25:18.372Z,993.58
2017-10-27T03:26:18.395Z,993.54
2017-10-27T03:27:18.346Z,993.54
2017-10-27T03:28:18.372Z,993.51
2017-10-27T03:29:18.377Z,993.50
2017-10-27T03:30:18.393Z,993.51
2017-10-27T03:31:18.399Z,993.47
2017-10-27T03:32:18.402Z,993.49
2017-10-27T03:33:18.395Z,993.52
2017-10-27T03:34:18.421Z,993.55
2017-10-27T03:35:18.411Z,993.51
2017-10-27T03:36:18.429Z,993.48
2017-10-27T03:37:18.430Z,993.52
2017-10-27T03:38:18.437Z,993.53
2017-10-27T03:39:18.438Z,993.53
2017-10-27T03:40:18.481Z,993.53
2017-10-27T03:41:18.455Z,993.52
2017-10-27T03:42:18.470Z,993.58
2017-10-27T03:43:18.477Z,993.51
2017-10-27T03:44:18.505Z,993.58
2017-10-27T03:45:18.537Z,993.51
2017-10-27T03:46:18.496Z,993.44
2017-10-27T03:47:18.514Z,993.47
2017-10-27T03:48:18.541Z,993.48
2017-10-27T03:49:18.531Z,993.51
2017-10-27T03:50:18.550Z,993.51
2017-10-27T03:51:18.562Z,993.45
2017-10-27T03:52:18.575Z,993.47
2017-10-27T03:53:18.560Z,993.41
2017-10-27T03:54:18.563Z,993.40
2017-10-27T03:55:18.592Z,993.35
2017-10-27T03:56:18.586Z,993.36
2017-10-27T03:57:18.593Z,993.32
2017-10-27T03:58:18.626Z,993.30
2017-10-27T03:59:18.610Z,993.22
2017-10-27T04:00:18.615Z,993.21
2017-10-27T04:01:18.653Z,993.17
2017-10-27T04:02:18.667Z,993.16
2017-10-27T04:03:18.639Z,993.17
2017-10-27T04:04:18.662Z,993.17
2017-10-27T04:05:24.242Z,993.21
2017-10-27T04:06:18.679Z,993.22
2017-10-27T04:07:18.681Z,993.20
2017-10-27T04:08:18.686Z,993.18
2017-10-27T04:09:18.685Z,993.15
2017-10-27T04:10:18.711Z,993.19
2017-10-27T04:11:18.708Z,993.15
2017-10-27T04:12:18.726Z,993.21
2017-10-27T04:13:18.751Z,993.13
2017-10-27T04:14:18.739Z,993.10
2017-10-27T04:15:18.763Z,993.09
2017-10-27T04:16:18.733Z,993.04
2017-10-27T04:17:18.760Z,993.04
2017-10-27T04:18:18.781Z,993.07
2017-10-27T04:19:18.773Z,993.07
2017-10-27T04:20:18.796Z,993.12
2017-10-27T04:21:18.795Z,993.10
2017-10-27T04:22:18.813Z,993.07
2017-10-27T04:23:18.813Z,993.09
2017-10-27T04:24:18.832Z,993.01
2017-10-27T04:25:18.818Z,992.97
2017-10-27T04:26:18.831Z,993.04
2017-10-27T04:27:18.838Z,992.99
2017-10-27T04:28:18.869Z,993.03
2017-10-27T04:29:18.878Z,992.97
2017-10-27T04:30:18.874Z,993.02
2017-10-27T04:31:18.879Z,993.03
2017-10-27T04:32:18.928Z,992.95
2017-10-27T04:33:18.883Z,993.02
2017-10-27T04:34:18.892Z,992.97
2017-10-27T04:35:18.894Z,992.95
2017-10-27T04:36:18.951Z,992.93
2017-10-27T04:37:18.952Z,992.94
2017-10-27T04:38:18.949Z,992.93
2017-10-27T04:39:18.945Z,992.90
2017-10-27T04:40:18.949Z,992.92
2017-10-27T04:41:18.950Z,992.91
2017-10-27T04:42:18.979Z,992.89
2017-10-27T04:43:18.960Z,992.88
2017-10-27T04:44:18.979Z,992.84
2017-10-27T04:45:19.028Z,992.82
2017-10-27T04:46:18.997Z,992.85
2017-10-27T04:47:19.064Z,992.83
2017-10-27T04:48:19.015Z,992.87
2017-10-27T04:49:19.025Z,992.83
2017-10-27T04:50:19.020Z,992.79
2017-10-27T04:51:19.060Z,992.82
2017-10-27T04:52:19.054Z,992.86
2017-10-27T04:53:19.037Z,992.88
2017-10-27T04:54:19.067Z,992.86
2017-10-27T04:55:19.102Z,992.85
2017-10-27T04:56:19.086Z,992.87
2017-10-27T04:57:19.079Z,992.88
2017-10-27T04:58:19.097Z,992.87
2017-10-27T04:59:19.085Z,992.88
2017-10-27T05:00:19.114Z,992.93
2017-10-27T05:01:19.100Z,992.83
2017-10-27T05:02:19.113Z,992.80
2017-10-27T05:03:19.132Z,992.82
2017-10-27T05:04:19.137Z,992.84
2017-10-27T05:05:19.144Z,992.85
2017-10-27T05:06:19.180Z,992.81
2017-10-27T05:07:19.156Z,992.81
2017-10-27T05:08:19.161Z,992.79
2017-10-27T05:09:19.201Z,992.76
2017-10-27T05:10:19.212Z,992.83
2017-10-27T05:11:19.206Z,992.83
2017-10-27T05:12:19.193Z,992.78
2017-10-27T05:13:19.235Z,992.79
2017-10-27T05:14:19.224Z,992.85
2017-10-27T05:15:19.218Z,992.85
2017-10-27T05:16:19.230Z,992.87
2017-10-27T05:17:19.228Z,992.83
2017-10-27T05:18:19.277Z,992.80
2017-10-27T05:19:19.276Z,992.81
2017-10-27T05:20:19.282Z,992.78
2017-10-27T05:21:19.292Z,992.76
2017-10-27T05:22:19.274Z,992.86
2017-10-27T05:23:19.325Z,992.80
2017-10-27T05:24:19.331Z,992.84
2017-10-27T05:25:19.319Z,992.80
2017-10-27T05:26:19.313Z,992.84
2017-10-27T05:27:19.347Z,992.88
2017-10-27T05:28:19.326Z,992.89
2017-10-27T05:29:19.336Z,992.88
2017-10-27T05:30:19.357Z,992.84
2017-10-27T05:31:19.356Z,992.89
2017-10-27T05:32:19.396Z,992.89
2017-10-27T05:33:19.363Z,992.92
2017-10-27T05:34:19.388Z,992.89
2017-10-27T05:35:19.411Z,992.86
2017-10-27T05:36:19.389Z,992.90
2017-10-27T05:37:19.433Z,992.90
2017-10-27T05:38:19.429Z,992.96
2017-10-27T05:39:19.469Z,993.02
2017-10-27T05:40:19.425Z,993.01
2017-10-27T05:41:19.434Z,993.01
2017-10-27T05:42:19.480Z,993.03
2017-10-27T05:43:19.492Z,993.11
2017-10-27T05:44:19.488Z,993.18
2017-10-27T05:45:19.473Z,993.20
2017-10-27T05:46:19.481Z,993.24
2017-10-27T05:47:19.482Z,993.28
2017-10-27T05:48:19.513Z,993.30
2017-10-27T05:49:19.532Z,993.28
2017-10-27T05:50:19.508Z,993.40
2017-10-27T05:51:19.526Z,993.43
2017-10-27T05:52:19.532Z,993.36
2017-10-27T05:53:19.543Z,993.37
2017-10-27T05:54:19.580Z,993.36
2017-10-27T05:55:19.553Z,993.25
2017-10-27T05:56:19.583Z,993.41
2017-10-27T05:57:19.553Z,993.40
2017-10-27T05:58:19.559Z,993.38
2017-10-27T05:59:19.577Z,993.37
2017-10-27T06:00:19.595Z,993.40
2017-10-27T06:01:19.600Z,993.47
2017-10-27T06:02:19.593Z,993.48
2017-10-27T06:03:19.624Z,993.61
2017-10-27T06:04:19.633Z,993.63
2017-10-27T06:05:19.614Z,993.67
2017-10-27T06:06:19.638Z,993.67
2017-10-27T06:07:19.645Z,993.66
2017-10-27T06:08:19.664Z,993.70
2017-10-27T06:09:19.675Z,993.69
2017-10-27T06:10:19.665Z,993.69
2017-10-27T06:11:19.673Z,993.76
2017-10-27T06:12:19.671Z,993.88
2017-10-27T06:13:19.674Z,993.87
2017-10-27T06:14:19.689Z,993.92
2017-10-27T06:15:19.730Z,993.84
2017-10-27T06:16:19.708Z,994.02
2017-10-27T06:17:19.750Z,994.02
2017-10-27T06:18:19.740Z,994.05
2017-10-27T06:19:19.729Z,994.04
2017-10-27T06:20:19.747Z,994.05
2017-10-27T06:21:19.762Z,994.06
2017-10-27T06:22:19.760Z,994.09
2017-10-27T06:23:19.756Z,994.08
2017-10-27T06:24:19.764Z,994.07
2017-10-27T06:25:19.795Z,994.06
2017-10-27T06:26:19.830Z,994.07
2017-10-27T06:27:19.782Z,994.14
2017-10-27T06:28:19.821Z,994.17
2017-10-27T06:29:19.821Z,994.17
2017-10-27T06:30:19.820Z,994.23
2017-10-27T06:31:19.826Z,994.19
2017-10-27T06:32:19.842Z,994.17
2017-10-27T06:33:19.834Z,994.19
2017-10-27T06:34:19.902Z,994.26
2017-10-27T06:35:19.859Z,994.31
2017-10-27T06:36:19.846Z,994.35
2017-10-27T06:37:19.857Z,994.36
2017-10-27T06:38:19.863Z,994.38
2017-10-27T06:39:19.898Z,994.42
2017-10-27T06:40:19.879Z,994.45
2017-10-27T06:41:19.900Z,994.42
2017-10-27T06:42:19.924Z,994.37
2017-10-27T06:43:19.941Z,994.37
2017-10-27T06:44:19.927Z,994.39
2017-10-27T06:45:19.916Z,994.41
2017-10-27T06:46:19.910Z,994.50
2017-10-27T06:47:19.929Z,994.60
2017-10-27T06:48:19.944Z,994.58
2017-10-27T06:49:19.973Z,994.67
2017-10-27T06:50:20.011Z,994.61
2017-10-27T06:51:19.967Z,994.60
2017-10-27T06:52:19.968Z,994.58
2017-10-27T06:53:20.088Z,994.61
2017-10-27T06:54:19.997Z,994.58
2017-10-27T06:55:19.986Z,994.59
2017-10-27T06:56:19.999Z,994.60
2017-10-27T06:57:20.066Z,994.59
2017-10-27T06:58:20.015Z,994.68
2017-10-27T06:59:20.045Z,994.75
2017-10-27T07:00:20.038Z,994.76
2017-10-27T07:01:20.068Z,994.81
2017-10-27T07:02:20.026Z,994.81
2017-10-27T07:03:20.082Z,994.89
2017-10-27T07:04:20.080Z,994.94
2017-10-27T07:05:20.059Z,995.00
2017-10-27T07:06:20.067Z,995.01
2017-10-27T07:07:20.072Z,995.05
2017-10-27T07:08:20.074Z,995.05
2017-10-27T07:09:20.121Z,995.12
2017-10-27T07:10:20.122Z,995.13
2017-10-27T07:11:20.093Z,995.12
2017-10-27T07:12:20.139Z,995.08
2017-10-27T07:13:20.110Z,995.19
2017-10-27T07:14:20.125Z,995.12
2017-10-27T07:15:20.142Z,995.25
2017-10-27T07:16:20.141Z,995.24
2017-10-27T07:17:20.183Z,995.28
2017-10-27T07:18:20.137Z,995.30
2017-10-27T07:19:20.165Z,995.36
2017-10-27T07:20:20.167Z,995.32
2017-10-27T07:21:20.187Z,995.36
2017-10-27T07:22:20.198Z,995.35
2017-10-27T07:23:20.199Z,995.39
2017-10-27T07:24:20.190Z,995.43
2017-10-27T07:25:20.233Z,995.47
2017-10-27T07:26:20.225Z,995.52
2017-10-27T07:27:20.234Z,995.47
2017-10-27T07:28:20.211Z,995.46
2017-10-27T07:29:20.247Z,995.50
2017-10-27T07:30:20.276Z,995.45
2017-10-27T07:31:20.256Z,995.43
2017-10-27T07:32:20.237Z,995.51
2017-10-27T07:33:20.262Z,995.57
2017-10-27T07:34:20.312Z,995.58
2017-10-27T07:35:20.267Z,995.52
2017-10-27T07:36:20.300Z,995.56
2017-10-27T07:37:20.284Z,995.57
2017-10-27T07:38:20.298Z,995.55
2017-10-27T07:39:20.328Z,995.63
2017-10-27T07:40:20.400Z,995.59
2017-10-27T07:41:20.359Z,995.54
2017-10-27T07:42:20.816Z,995.62
2017-10-27T07:43:20.379Z,995.60
2017-10-27T07:44:20.348Z,995.56
2017-10-27T07:45:20.353Z,995.57
2017-10-27T07:46:20.347Z,995.61
2017-10-27T07:47:20.379Z,995.73
2017-10-27T07:48:20.386Z,995.71
2017-10-27T07:49:20.406Z,995.82
2017-10-27T07:50:20.378Z,995.87
2017-10-27T07:51:20.397Z,995.84
2017-10-27T07:52:20.403Z,995.92
2017-10-27T07:53:20.383Z,995.95
2017-10-27T07:54:20.438Z,995.95
2017-10-27T07:55:20.419Z,996.03
2017-10-27T07:56:20.412Z,996.04
2017-10-27T07:57:20.447Z,996.09
2017-10-27T07:58:20.436Z,996.11
2017-10-27T07:59:20.439Z,996.14
2017-10-27T08:00:20.484Z,996.16
2017-10-27T08:01:20.456Z,996.14
2017-10-27T08:02:20.497Z,996.11
2017-10-27T08:03:20.454Z,996.20
2017-10-27T08:04:20.460Z,996.16
2017-10-27T08:05:20.479Z,996.15
2017-10-27T08:06:20.496Z,996.12
2017-10-27T08:07:20.501Z,996.10
2017-10-27T08:08:20.499Z,996.19
2017-10-27T08:09:20.508Z,996.25
2017-10-27T08:10:20.517Z,996.28
2017-10-27T08:11:20.530Z,996.30
2017-10-27T08:12:20.566Z,996.29
2017-10-27T08:13:20.557Z,996.27
2017-10-27T08:14:20.573Z,996.34
2017-10-27T08:15:20.552Z,996.38
2017-10-27T08:16:20.569Z,996.40
2017-10-27T08:17:20.571Z,996.39
2017-10-27T08:18:20.551Z,996.42
2017-10-27T08:19:20.588Z,996.47
2017-10-27T08:20:20.606Z,996.50
2017-10-27T08:21:20.571Z,996.49
2017-10-27T08:22:20.584Z,996.56
2017-10-27T08:23:20.606Z,996.54
2017-10-27T08:24:20.626Z,996.56
2017-10-27T08:25:20.651Z,996.59
2017-10-27T08:26:20.614Z,996.60
2017-10-27T08:27:20.631Z,996.60
2017-10-27T08:28:20.635Z,996.62
2017-10-27T08:29:20.647Z,996.72
2017-10-27T08:30:20.659Z,996.69
2017-10-27T08:31:20.694Z,996.69
2017-10-27T08:32:20.647Z,996.73
2017-10-27T08:33:20.696Z,996.78
2017-10-27T08:34:20.678Z,996.77
2017-10-27T08:35:20.670Z,996.82
2017-10-27T08:36:20.681Z,996.84
2017-10-27T08:37:20.721Z,996.76
2017-10-27T08:38:20.698Z,996.81
2017-10-27T08:39:20.693Z,996.78
2017-10-27T08:40:20.763Z,996.81
2017-10-27T08:41:20.766Z,996.78
2017-10-27T08:42:20.756Z,996.85
2017-10-27T08:43:20.724Z,996.79
2017-10-27T08:44:20.761Z,996.87
2017-10-27T08:45:20.775Z,996.85
2017-10-27T08:46:20.761Z,996.87
2017-10-27T08:47:20.747Z,996.91
2017-10-27T08:48:20.765Z,996.94
2017-10-27T08:49:20.793Z,996.94
2017-10-27T08:50:20.792Z,996.95
2017-10-27T08:51:20.789Z,997.00
2017-10-27T08:52:20.801Z,997.09
2017-10-27T08:53:20.818Z,997.10
2017-10-27T08:54:20.829Z,997.13
2017-10-27T08:55:20.843Z,997.16
2017-10-27T08:56:20.819Z,997.18
2017-10-27T08:57:20.831Z,997.18
2017-10-27T08:58:20.850Z,997.23
2017-10-27T08:59:20.842Z,997.21
2017-10-27T09:00:20.838Z,997.21
2017-10-27T09:01:20.866Z,997.19
2017-10-27T09:02:20.912Z,997.19
2017-10-27T09:03:20.898Z,997.24
2017-10-27T09:04:20.950Z,997.29
2017-10-27T09:05:20.919Z,997.26
2017-10-27T09:06:20.931Z,997.29
2017-10-27T09:07:20.948Z,997.25
2017-10-27T09:08:20.952Z,997.30
2017-10-27T09:09:20.911Z,997.23
2017-10-27T09:10:20.928Z,997.22
2017-10-27T09:11:20.929Z,997.24
2017-10-27T09:12:20.943Z,997.22
2017-10-27T09:13:20.950Z,997.20
2017-10-27T09:14:20.975Z,997.26
2017-10-27T09:15:20.967Z,997.26
2017-10-27T09:16:20.956Z,997.25
2017-10-27T09:17:20.992Z,997.27
2017-10-27T09:18:20.992Z,997.30
2017-10-27T09:19:21.010Z,997.30
2017-10-27T09:20:21.023Z,997.35
2017-10-27T09:21:21.009Z,997.34
2017-10-27T09:22:21.032Z,997.22
2017-10-27T09:23:21.036Z,997.28
2017-10-27T09:24:21.050Z,997.23
2017-10-27T09:25:21.032Z,997.25
2017-10-27T09:26:21.056Z,997.29
2017-10-27T09:27:21.062Z,997.34
2017-10-27T09:28:21.060Z,997.37
2017-10-27T09:29:21.060Z,997.39
2017-10-27T09:30:21.102Z,997.36
2017-10-27T09:31:21.082Z,997.40
2017-10-27T09:32:21.109Z,997.41
2017-10-27T09:33:21.086Z,997.39
2017-10-27T09:34:21.099Z,997.45
2017-10-27T09:35:21.113Z,997.46
2017-10-27T09:36:21.121Z,997.52
2017-10-27T09:37:21.133Z,997.51
2017-10-27T09:38:21.150Z,997.39
2017-10-27T09:39:21.145Z,997.47
2017-10-27T09:40:21.155Z,997.48
2017-10-27T09:41:21.149Z,997.53
2017-10-27T09:42:21.183Z,997.57
2017-10-27T09:43:21.161Z,997.57
2017-10-27T09:44:21.204Z,997.59
2017-10-27T09:45:21.213Z,997.60
2017-10-27T09:46:21.230Z,997.55
2017-10-27T09:47:21.187Z,997.58
2017-10-27T09:48:21.207Z,997.64
2017-10-27T09:49:21.216Z,997.68
2017-10-27T09:50:21.250Z,997.68
2017-10-27T09:51:21.285Z,997.73
2017-10-27T09:52:21.255Z,997.67
2017-10-27T09:53:21.239Z,997.65
2017-10-27T09:54:21.248Z,997.71
2017-10-27T09:55:21.298Z,997.68
2017-10-27T09:56:21.287Z,997.69
2017-10-27T09:57:21.292Z,997.66
2017-10-27T09:58:21.299Z,997.73
2017-10-27T09:59:21.290Z,997.77
2017-10-27T10:00:21.323Z,997.81
2017-10-27T10:01:21.306Z,997.88
2017-10-27T10:02:21.334Z,997.87
2017-10-27T10:03:21.314Z,997.97
2017-10-27T10:04:21.324Z,997.99
2017-10-27T10:05:21.343Z,998.01
2017-10-27T10:06:21.341Z,997.95
2017-10-27T10:07:21.349Z,998.01
2017-10-27T10:08:21.350Z,998.03
2017-10-27T10:09:21.382Z,998.07
2017-10-27T10:10:21.577Z,998.08
2017-10-27T10:11:21.366Z,998.12
2017-10-27T10:12:21.381Z,998.11
2017-10-27T10:13:21.388Z,998.10
2017-10-27T10:14:21.413Z,998.06
2017-10-27T10:15:21.436Z,998.07
2017-10-27T10:16:21.433Z,998.09
2017-10-27T10:17:21.418Z,998.15
2017-10-27T10:18:21.431Z,998.16
2017-10-27T10:19:21.462Z,998.20
2017-10-27T10:20:21.444Z,998.23
2017-10-27T10:21:21.442Z,998.19
2017-10-27T10:22:21.488Z,998.15
2017-10-27T10:23:21.464Z,998.19
2017-10-27T10:24:21.476Z,998.17
2017-10-27T10:25:21.504Z,998.22
2017-10-27T10:26:21.495Z,998.25
2017-10-27T10:27:21.522Z,998.23
2017-10-27T10:28:21.509Z,998.22
2017-10-27T10:29:21.521Z,998.23
2017-10-27T10:30:21.534Z,998.29
2017-10-27T10:31:21.540Z,998.29
2017-10-27T10:32:21.552Z,998.27
2017-10-27T10:33:21.545Z,998.32
2017-10-27T10:34:21.561Z,998.30
2017-10-27T10:35:21.559Z,998.32
2017-10-27T10:36:21.592Z,998.29
2017-10-27T10:37:21.591Z,998.30
2017-10-27T10:38:21.586Z,998.28
2017-10-27T10:39:21.601Z,998.33
2017-10-27T10:40:21.604Z,998.33
2017-10-27T10:41:21.595Z,998.35
2017-10-27T10:42:21.652Z,998.32
2017-10-27T10:43:21.631Z,998.31
2017-10-27T10:44:21.640Z,998.35
2017-10-27T10:45:21.663Z,998.34
2017-10-27T10:46:21.636Z,998.32
2017-10-27T10:47:21.641Z,998.28
2017-10-27T10:48:21.690Z,998.35
2017-10-27T10:49:21.676Z,998.37
2017-10-27T10:50:21.699Z,998.36
2017-10-27T10:51:21.682Z,998.45
2017-10-27T10:52:21.723Z,998.45
2017-10-27T10:53:21.681Z,998.39
2017-10-27T10:54:21.723Z,998.44
2017-10-27T10:55:21.713Z,998.43
2017-10-27T10:56:21.712Z,998.45
2017-10-27T10:57:21.731Z,998.41
2017-10-27T10:58:21.743Z,998.43
2017-10-27T10:59:21.753Z,998.37
2017-10-27T11:00:21.759Z,998.38
2017-10-27T11:01:21.804Z,998.38
2017-10-27T11:02:21.767Z,998.33
2017-10-27T11:03:21.772Z,998.33
2017-10-27T11:04:21.816Z,998.43
2017-10-27T11:05:21.789Z,998.37
2017-10-27T11:06:21.799Z,998.40
2017-10-27T11:07:21.802Z,998.38
2017-10-27T11:08:21.802Z,998.36
2017-10-27T11:09:21.815Z,998.31
2017-10-27T11:10:21.824Z,998.34
2017-10-27T11:11:21.833Z,998.33
2017-10-27T11:12:21.868Z,998.41
2017-10-27T11:13:21.849Z,998.41
2017-10-27T11:14:21.872Z,998.36
2017-10-27T11:15:21.862Z,998.40
2017-10-27T11:16:21.874Z,998.33
2017-10-27T11:17:21.921Z,998.34
2017-10-27T11:18:21.902Z,998.35
2017-10-27T11:19:21.900Z,998.35
2017-10-27T11:20:21.956Z,998.37
2017-10-27T11:21:21.926Z,998.34
2017-10-27T11:22:21.910Z,998.39
2017-10-27T11:23:21.952Z,998.42
2017-10-27T11:24:21.924Z,998.38
2017-10-27T11:25:21.974Z,998.39
2017-10-27T11:26:21.937Z,998.33
2017-10-27T11:27:21.954Z,998.37
2017-10-27T11:28:21.955Z,998.35
2017-10-27T11:29:21.960Z,998.35
2017-10-27T11:30:22.024Z,998.42
2017-10-27T11:31:21.991Z,998.32
2017-10-27T11:32:21.987Z,998.28
2017-10-27T11:33:22.011Z,998.28
2017-10-27T11:34:22.018Z,998.31
2017-10-27T11:35:22.003Z,998.26
2017-10-27T11:36:22.017Z,998.27
2017-10-27T11:37:22.033Z,998.27
2017-10-27T11:38:22.044Z,998.25
2017-10-27T11:39:22.028Z,998.24
2017-10-27T11:40:22.052Z,998.31
2017-10-27T11:41:22.074Z,998.30
2017-10-27T11:42:22.071Z,998.30
2017-10-27T11:43:22.096Z,998.25
2017-10-27T11:44:22.075Z,998.26
2017-10-27T11:45:22.100Z,998.32
2017-10-27T11:46:22.101Z,998.26
2017-10-27T11:47:22.115Z,998.29
2017-10-27T11:48:22.126Z,998.31
2017-10-27T11:49:22.125Z,998.25
2017-10-27T11:50:22.118Z,998.29
2017-10-27T11:51:22.136Z,998.35
2017-10-27T11:52:22.129Z,998.30
2017-10-27T11:53:22.174Z,998.32
2017-10-27T11:54:22.167Z,998.32
2017-10-27T11:55:22.164Z,998.40
2017-10-27T11:56:22.172Z,998.36
2017-10-27T11:57:22.180Z,998.40
2017-10-27T11:58:22.190Z,998.39
2017-10-27T11:59:22.186Z,998.37
2017-10-27T12:00:22.195Z,998.41
2017-10-27T12:01:22.219Z,998.36
2017-10-27T12:02:22.236Z,998.37
2017-10-27T12:03:22.220Z,998.32
2017-10-27T12:04:22.255Z,998.36
2017-10-27T12:05:22.243Z,998.34
2017-10-27T12:06:22.245Z,998.31
2017-10-27T12:07:22.243Z,998.31
2017-10-27T12:08:22.246Z,998.29
2017-10-27T12:09:22.263Z,998.32
2017-10-27T12:10:22.277Z,998.30
2017-10-27T12:11:22.285Z,998.37
2017-10-27T12:12:22.291Z,998.40
2017-10-27T12:13:22.289Z,998.41
2017-10-27T12:14:22.300Z,998.45
2017-10-27T12:15:22.306Z,998.44
2017-10-27T12:16:22.321Z,998.47
2017-10-27T12:17:22.347Z,998.47
2017-10-27T12:18:22.322Z,998.54
2017-10-27T12:19:22.351Z,998.49
2017-10-27T12:20:22.348Z,998.55
2017-10-27T12:21:22.344Z,998.50
2017-10-27T12:22:22.357Z,998.54
2017-10-27T12:23:22.366Z,998.53
2017-10-27T12:24:22.380Z,998.54
2017-10-27T12:25:22.391Z,998.51
2017-10-27T12:26:22.390Z,998.52
2017-10-27T12:27:22.420Z,998.58
2017-10-27T12:28:22.440Z,998.55